Time;durP1;ratioP1;P1;durP2;ratioP2;P2;SDS_P1;SDS_P2;PMS_P1;PMS_P2;Temp;Humidity;BMP_temperature;BMP_pressure;BME280_temperature;BME280_humidity;BME280_pressure;Samples;Min_cycle;Max_cycle;Signal;HPM_P1;HPM_P2
2022/04/12 00:01:34;;;;;;;11.68;5.45;;;5.50;99.90;;;;;;5085460;28;20462;-65
2022/04/12 00:04:03;;;;;;;11.85;6.75;;;5.50;99.90;;;;;;5101441;28;20046;-65
2022/04/12 00:06:30;;;;;;;12.75;6.45;;;5.50;99.90;;;;;;5107134;28;20046;-65
2022/04/12 00:08:58;;;;;;;13.27;5.90;;;5.50;99.90;;;;;;5106516;27;20513;-65
2022/04/12 00:11:27;;;;;;;10.25;6.03;;;5.60;99.90;;;;;;5104838;28;20493;-65
2022/04/12 00:13:54;;;;;;;12.32;6.25;;;5.60;99.90;;;;;;5102797;28;20067;-65
2022/04/12 00:16:21;;;;;;;9.52;5.65;;;5.60;99.90;;;;;;5105859;28;20126;-66
2022/04/12 00:19:04;;;;;;;9.32;5.63;;;5.60;99.90;;;;;;5082397;28;20539;-66
2022/04/12 00:21:34;;;;;;;12.13;5.90;;;5.60;99.90;;;;;;5093499;28;20039;-66
2022/04/12 00:24:04;;;;;;;13.73;6.57;;;5.60;99.90;;;;;;5094750;28;20130;-65
2022/04/12 00:26:32;;;;;;;11.18;6.13;;;5.60;99.90;;;;;;5094851;28;20134;-65
2022/04/12 00:29:00;;;;;;;11.93;5.85;;;5.60;99.90;;;;;;5079369;28;20044;-65
2022/04/12 00:31:30;;;;;;;11.13;5.50;;;5.60;99.90;;;;;;5075975;28;20037;-66
2022/04/12 00:33:57;;;;;;;10.02;5.65;;;5.60;99.90;;;;;;5092944;28;20105;-66
2022/04/12 00:36:25;;;;;;;9.00;4.88;;;5.60;99.90;;;;;;5097905;28;20474;-64
2022/04/12 00:38:52;;;;;;;10.05;5.82;;;5.50;99.90;;;;;;5083559;28;20625;-65
2022/04/12 00:41:19;;;;;;;11.65;6.22;;;5.50;99.90;;;;;;5100231;28;20059;-66
2022/04/12 00:43:47;;;;;;;9.73;5.45;;;5.40;99.90;;;;;;5085449;28;20055;-64
2022/04/12 00:46:14;;;;;;;10.25;5.38;;;5.40;99.90;;;;;;5097317;28;20127;-66
2022/04/12 00:48:41;;;;;;;10.95;5.35;;;5.40;99.90;;;;;;5098583;28;20474;-65
2022/04/12 00:51:09;;;;;;;9.65;5.07;;;5.40;99.90;;;;;;5092310;28;20040;-65
2022/04/12 00:53:37;;;;;;;9.98;5.18;;;5.40;99.90;;;;;;5103249;28;20039;-66
2022/04/12 00:56:05;;;;;;;10.07;4.88;;;5.30;99.90;;;;;;5098473;28;20457;-66
2022/04/12 00:58:33;;;;;;;10.27;6.20;;;5.30;99.90;;;;;;5107778;28;20380;-66
2022/04/12 01:01:00;;;;;;;9.10;5.15;;;5.30;99.90;;;;;;5085217;28;20106;-65
2022/04/12 01:03:27;;;;;;;12.02;5.70;;;5.30;99.90;;;;;;5089390;28;20071;-66
2022/04/12 01:05:57;;;;;;;11.32;5.18;;;5.30;99.90;;;;;;5081543;28;20051;-65
2022/04/12 01:08:26;;;;;;;8.57;4.82;;;5.30;99.90;;;;;;5092037;28;20039;-65
2022/04/12 01:10:53;;;;;;;9.88;4.93;;;5.30;99.90;;;;;;5094870;28;20047;-65
2022/04/12 01:13:21;;;;;;;9.07;5.20;;;5.30;99.90;;;;;;5082984;28;20123;-65
2022/04/12 01:15:48;;;;;;;10.68;4.63;;;5.30;99.90;;;;;;5081709;28;20471;-66
2022/04/12 01:18:16;;;;;;;8.32;4.70;;;5.30;99.90;;;;;;5092001;28;20039;-64
2022/04/12 01:20:43;;;;;;;8.43;5.10;;;5.20;99.90;;;;;;5088189;28;20040;-66
2022/04/12 01:23:33;;;;;;;8.00;4.40;;;5.30;99.90;;;;;;5082212;28;20303;-65
2022/04/12 01:26:00;;;;;;;8.93;5.70;;;5.20;99.90;;;;;;5097796;28;20284;-65
2022/04/12 01:28:27;;;;;;;11.02;5.70;;;5.20;99.90;;;;;;5093445;28;20094;-65
2022/04/12 01:30:55;;;;;;;12.35;6.70;;;5.20;99.90;;;;;;5075762;28;20098;-64
2022/04/12 01:33:22;;;;;;;10.27;5.32;;;5.20;99.90;;;;;;5098220;28;20032;-65
2022/04/12 01:35:50;;;;;;;9.50;5.03;;;5.10;99.90;;;;;;5092066;28;20143;-65
2022/04/12 01:38:18;;;;;;;7.45;4.63;;;5.10;99.90;;;;;;5083457;28;20102;-65
2022/04/12 01:40:45;;;;;;;12.75;5.70;;;5.00;99.90;;;;;;5087860;28;20035;-64
2022/04/12 01:43:13;;;;;;;7.40;4.90;;;5.00;99.90;;;;;;5079553;28;20036;-65
2022/04/12 01:45:41;;;;;;;9.80;5.43;;;4.90;99.90;;;;;;5094231;28;20519;-66
2022/04/12 01:48:08;;;;;;;7.43;4.53;;;4.90;99.90;;;;;;5097477;28;20042;-65
2022/04/12 01:50:35;;;;;;;9.27;4.60;;;4.80;99.90;;;;;;5083783;28;20127;-65
2022/04/12 01:53:03;;;;;;;8.60;4.60;;;4.80;99.90;;;;;;5096441;28;20047;-65
2022/04/12 01:55:30;;;;;;;10.60;5.72;;;4.70;99.90;;;;;;5092453;28;20048;-65
2022/04/12 01:57:57;;;;;;;7.32;4.40;;;4.70;99.90;;;;;;5101037;28;20047;-65
2022/04/12 02:00:25;;;;;;;9.35;5.28;;;4.70;99.90;;;;;;5096264;28;20092;-64
2022/04/12 02:02:52;;;;;;;8.65;4.85;;;4.60;99.90;;;;;;5085598;28;20074;-66
2022/04/12 02:05:20;;;;;;;9.43;5.05;;;4.60;99.90;;;;;;5104761;28;20496;-64
2022/04/12 02:07:47;;;;;;;8.35;4.80;;;4.60;99.90;;;;;;5078044;28;20052;-65
2022/04/12 02:10:15;;;;;;;9.80;4.85;;;4.60;99.90;;;;;;5102638;28;20051;-64
2022/04/12 02:12:42;;;;;;;9.38;5.45;;;4.60;99.90;;;;;;5088224;28;20574;-64
2022/04/12 02:15:09;;;;;;;7.63;5.00;;;4.60;99.90;;;;;;5107170;28;20039;-65
2022/04/12 02:17:36;;;;;;;8.88;5.20;;;4.60;99.90;;;;;;5095755;28;20498;-66
2022/04/12 02:20:04;;;;;;;8.10;4.47;;;4.60;99.90;;;;;;5099080;28;20139;-66
2022/04/12 02:22:32;;;;;;;10.57;5.10;;;4.60;99.90;;;;;;5103898;28;20097;-65
2022/04/12 02:24:59;;;;;;;8.05;4.97;;;4.50;99.90;;;;;;5089912;28;20118;-65
2022/04/12 02:27:26;;;;;;;11.38;6.15;;;4.50;99.90;;;;;;5087290;28;20138;-65
2022/04/12 02:29:53;;;;;;;10.50;5.13;;;4.50;99.90;;;;;;5097354;28;20036;-65
2022/04/12 02:32:21;;;;;;;8.90;4.85;;;4.50;99.90;;;;;;5097507;28;20051;-65
2022/04/12 02:34:48;;;;;;;7.93;4.63;;;4.40;99.90;;;;;;5092821;28;20375;-66
2022/04/12 02:37:15;;;;;;;10.50;5.38;;;4.40;99.90;;;;;;5104624;28;20473;-66
2022/04/12 02:39:42;;;;;;;9.00;4.75;;;4.40;99.90;;;;;;5099110;28;20044;-65
2022/04/12 02:42:09;;;;;;;9.25;4.97;;;4.40;99.90;;;;;;5102182;28;20057;-65
2022/04/12 02:44:37;;;;;;;9.70;5.00;;;4.40;99.90;;;;;;5100121;28;20052;-65
2022/04/12 02:47:04;;;;;;;9.93;5.55;;;4.40;99.90;;;;;;5103176;28;20118;-65
2022/04/12 02:49:31;;;;;;;13.15;5.63;;;4.30;99.90;;;;;;5104923;28;20502;-65
2022/04/12 02:51:59;;;;;;;12.68;5.28;;;4.30;99.90;;;;;;5100433;28;20036;-65
2022/04/12 02:54:26;;;;;;;8.30;5.22;;;4.30;99.90;;;;;;5105482;28;20382;-65
2022/04/12 02:56:53;;;;;;;9.30;5.68;;;4.20;99.90;;;;;;5093850;28;20123;-66
2022/04/12 02:59:21;;;;;;;11.07;4.97;;;4.20;99.90;;;;;;5095660;28;20036;-65
2022/04/12 03:01:48;;;;;;;9.32;5.85;;;4.20;99.90;;;;;;5082274;28;20092;-65
2022/04/12 03:04:15;;;;;;;7.75;5.05;;;4.20;99.90;;;;;;5098060;28;20048;-65
2022/04/12 03:06:43;;;;;;;11.50;5.75;;;4.20;99.90;;;;;;5099319;28;20131;-65
2022/04/12 03:09:11;;;;;;;8.25;4.47;;;4.20;99.90;;;;;;5097096;28;20044;-66
2022/04/12 03:11:39;;;;;;;8.98;5.47;;;4.20;99.90;;;;;;5101789;28;20410;-65
2022/04/12 03:14:08;;;;;;;9.85;5.75;;;4.20;99.90;;;;;;5088661;28;20051;-66
2022/04/12 03:16:36;;;;;;;9.77;5.75;;;4.10;99.90;;;;;;5101661;28;20063;-65
2022/04/12 03:19:03;;;;;;;9.35;5.85;;;4.10;99.90;;;;;;5098896;28;20040;-65
2022/04/12 03:21:30;;;;;;;8.13;5.07;;;4.10;99.90;;;;;;5097579;28;20039;-65
2022/04/12 03:23:57;;;;;;;9.45;5.22;;;4.00;99.90;;;;;;5095009;28;20048;-65
2022/04/12 03:26:25;;;;;;;9.23;5.10;;;4.00;99.90;;;;;;5101183;28;20051;-65
2022/04/12 03:28:52;;;;;;;10.88;5.70;;;4.00;99.90;;;;;;5092438;28;20041;-65
2022/04/12 03:31:20;;;;;;;8.10;5.18;;;4.00;99.90;;;;;;5086130;28;20074;-65
2022/04/12 03:33:47;;;;;;;11.10;5.95;;;4.00;99.90;;;;;;5094283;28;20051;-65
2022/04/12 03:36:15;;;;;;;10.27;5.53;;;3.90;99.90;;;;;;5109255;28;20067;-65
2022/04/12 03:38:48;;;;;;;10.70;4.78;;;3.90;99.90;;;;;;5107863;28;20050;-65
2022/04/12 03:41:19;;;;;;;10.02;6.25;;;3.90;99.90;;;;;;5093496;28;20763;-65
2022/04/12 03:43:46;;;;;;;12.63;5.82;;;3.90;99.90;;;;;;5092458;28;20451;-65
2022/04/12 03:46:14;;;;;;;11.20;6.28;;;3.80;99.90;;;;;;5092553;28;20048;-65
2022/04/12 03:48:41;;;;;;;10.65;5.60;;;3.90;99.90;;;;;;5104058;28;20113;-65
2022/04/12 03:51:08;;;;;;;9.68;5.68;;;3.80;99.90;;;;;;5097242;28;20555;-65
2022/04/12 03:53:39;;;;;;;10.73;6.43;;;3.90;99.90;;;;;;5098916;28;20054;-64
2022/04/12 03:56:07;;;;;;;13.63;5.88;;;3.80;99.90;;;;;;5083707;28;20044;-64
2022/04/12 03:58:38;;;;;;;10.45;6.03;;;3.90;99.90;;;;;;5095430;28;20472;-65
2022/04/12 04:01:05;;;;;;;9.73;5.75;;;3.90;99.90;;;;;;5085181;28;20054;-65
2022/04/12 04:03:35;;;;;;;12.20;6.25;;;3.80;99.90;;;;;;5086672;28;20472;-66
2022/04/12 04:06:03;;;;;;;13.70;6.63;;;3.80;99.90;;;;;;5088098;28;20128;-66
2022/04/12 04:08:31;;;;;;;13.68;7.05;;;3.80;99.90;;;;;;5089233;28;20127;-65
2022/04/12 04:10:58;;;;;;;11.35;6.40;;;3.80;99.90;;;;;;5085565;28;20494;-65
2022/04/12 04:13:29;;;;;;;12.75;7.20;;;3.80;99.90;;;;;;5090248;28;20593;-66
2022/04/12 04:15:57;;;;;;;11.67;7.30;;;3.80;99.90;;;;;;5089742;28;20127;-64
2022/04/12 04:18:24;;;;;;;10.98;6.13;;;3.80;99.90;;;;;;5089574;28;20419;-66
2022/04/12 04:20:52;;;;;;;12.32;6.75;;;3.80;99.90;;;;;;5078891;28;20470;-65
2022/04/12 04:23:21;;;;;;;9.77;6.18;;;3.90;99.90;;;;;;5087875;28;20407;-65
2022/04/12 04:25:48;;;;;;;13.25;8.27;;;3.80;99.90;;;;;;5091530;28;20052;-66
2022/04/12 04:28:21;;;;;;;13.43;6.97;;;3.90;99.90;;;;;;5090955;28;20395;-65
2022/04/12 04:30:49;;;;;;;10.07;5.97;;;3.90;99.90;;;;;;5084573;28;20134;-65
2022/04/12 04:33:18;;;;;;;12.68;7.03;;;3.90;99.90;;;;;;5092203;28;20104;-65
2022/04/12 04:35:46;;;;;;;17.80;10.45;;;3.90;99.90;;;;;;5097508;28;20038;-65
2022/04/12 04:38:15;;;;;;;10.93;6.43;;;3.90;99.90;;;;;;5089277;28;20040;-65
2022/04/12 04:40:42;;;;;;;12.40;6.45;;;4.00;99.90;;;;;;5101896;28;20050;-65
2022/04/12 04:43:10;;;;;;;13.55;6.60;;;4.00;99.90;;;;;;5091140;28;20040;-66
2022/04/12 04:45:38;;;;;;;9.18;5.43;;;4.10;99.90;;;;;;5090343;28;20052;-65
2022/04/12 04:48:05;;;;;;;11.65;6.28;;;4.10;99.90;;;;;;5084260;28;20463;-65
2022/04/12 04:50:34;;;;;;;11.45;5.35;;;4.20;99.90;;;;;;5089062;28;20653;-65
2022/04/12 04:53:04;;;;;;;8.73;5.05;;;4.20;99.90;;;;;;5077745;28;20541;-64
2022/04/12 04:55:40;;;;;;;12.18;5.80;;;4.30;99.90;;;;;;5090741;28;20085;-66
2022/04/12 04:58:08;;;;;;;12.02;6.82;;;4.30;99.90;;;;;;5097422;28;20054;-65
2022/04/12 05:00:35;;;;;;;13.43;6.53;;;4.40;99.90;;;;;;5096139;27;20126;-65
2022/04/12 05:03:04;;;;;;;16.65;8.70;;;4.50;99.90;;;;;;5082309;28;20032;-66
2022/04/12 05:05:31;;;;;;;13.90;7.53;;;4.60;99.90;;;;;;5090423;28;20079;-64
2022/04/12 05:07:59;;;;;;;10.27;6.00;;;4.70;99.90;;;;;;5092394;28;20039;-65
2022/04/12 05:10:29;;;;;;;9.85;5.57;;;4.80;99.90;;;;;;5105795;28;20044;-65
2022/04/12 05:12:58;;;;;;;10.32;5.75;;;4.90;99.90;;;;;;5091192;28;20123;-65
2022/04/12 05:15:27;;;;;;;12.07;6.53;;;5.00;99.90;;;;;;5101060;28;20055;-64
2022/04/12 05:17:59;;;;;;;11.32;5.20;;;5.10;99.90;;;;;;5096072;28;20628;-65
2022/04/12 05:20:26;;;;;;;16.48;7.13;;;5.20;99.90;;;;;;5085484;28;20400;-65
2022/04/12 05:22:54;;;;;;;9.32;5.15;;;5.20;99.90;;;;;;5098539;28;20072;-64
2022/04/12 05:25:21;;;;;;;10.13;5.40;;;5.30;99.90;;;;;;5090274;28;20090;-65
2022/04/12 05:27:49;;;;;;;11.55;5.40;;;5.40;99.90;;;;;;5103070;28;20506;-64
2022/04/12 05:30:17;;;;;;;10.35;4.90;;;5.50;99.90;;;;;;5087656;28;20066;-64
2022/04/12 05:32:45;;;;;;;12.02;5.55;;;5.60;99.90;;;;;;5098751;28;20518;-64
2022/04/12 05:35:13;;;;;;;13.02;5.70;;;5.70;99.90;;;;;;5103017;28;20126;-65
2022/04/12 05:37:49;;;;;;;10.38;5.93;;;5.90;99.90;;;;;;5099681;28;20074;-65
2022/04/12 05:40:18;;;;;;;10.88;5.45;;;6.00;99.90;;;;;;5104177;28;20054;-65
2022/04/12 05:42:47;;;;;;;11.45;6.38;;;6.20;99.90;;;;;;5100032;28;20032;-65
2022/04/12 05:45:15;;;;;;;9.63;5.35;;;6.30;99.90;;;;;;5106013;28;20040;-65
2022/04/12 05:47:49;;;;;;;10.45;4.97;;;6.40;99.90;;;;;;5088402;28;20044;-65
2022/04/12 05:50:20;;;;;;;12.65;4.90;;;6.50;99.90;;;;;;5089594;28;20036;-65
2022/04/12 05:52:47;;;;;;;10.95;5.65;;;6.60;99.90;;;;;;5084812;28;20041;-65
2022/04/12 05:55:17;;;;;;;8.13;4.20;;;6.70;99.90;;;;;;5091364;28;20379;-65
2022/04/12 05:57:59;;;;;;;7.68;4.22;;;6.90;99.90;;;;;;5091368;28;20035;-65
2022/04/12 06:00:29;;;;;;;11.45;5.70;;;7.00;99.90;;;;;;5091597;28;20048;-65
2022/04/12 06:02:57;;;;;;;8.38;4.72;;;7.00;99.90;;;;;;5080166;28;20040;-66
2022/04/12 06:05:28;;;;;;;12.85;6.35;;;7.10;99.90;;;;;;5089813;28;20047;-65
2022/04/12 06:07:55;;;;;;;10.32;6.10;;;7.10;99.90;;;;;;5090041;28;20077;-65
2022/04/12 06:10:23;;;;;;;10.82;6.15;;;7.10;99.90;;;;;;5089669;28;20055;-65
2022/04/12 06:12:57;;;;;;;11.07;5.18;;;7.30;99.90;;;;;;5094594;28;20388;-65
2022/04/12 06:15:25;;;;;;;9.75;5.18;;;7.40;99.90;;;;;;5088180;28;20036;-65
2022/04/12 06:17:52;;;;;;;12.82;4.82;;;7.50;99.90;;;;;;5090280;28;20527;-65
2022/04/12 06:20:20;;;;;;;8.57;5.07;;;7.60;99.90;;;;;;5089193;28;20150;-64
2022/04/12 06:22:47;;;;;;;11.52;4.97;;;7.70;99.90;;;;;;5076685;28;20048;-71
2022/04/12 06:25:25;;;;;;;8.20;4.78;;;7.70;99.90;;;;;;5089152;28;20032;-67
2022/04/12 06:27:52;;;;;;;11.60;6.05;;;7.80;99.90;;;;;;5083637;28;20044;-66
2022/04/12 06:30:22;;;;;;;10.75;5.50;;;7.90;99.90;;;;;;5088369;28;20494;-66
2022/04/12 06:32:51;;;;;;;15.07;6.65;;;8.00;99.90;;;;;;5089664;28;20415;-66
2022/04/12 06:35:19;;;;;;;12.30;5.30;;;8.20;99.90;;;;;;5090225;28;20036;-66
2022/04/12 06:37:48;;;;;;;9.70;5.32;;;8.30;99.90;;;;;;5085586;28;20059;-65
2022/04/12 06:40:16;;;;;;;8.55;4.10;;;8.40;99.90;;;;;;5088827;28;20074;-66
2022/04/12 06:42:43;;;;;;;9.48;4.55;;;8.50;99.90;;;;;;5099111;28;20051;-66
2022/04/12 06:45:13;;;;;;;8.57;4.95;;;8.60;99.90;;;;;;5096863;28;20558;-66
2022/04/12 06:47:41;;;;;;;8.77;4.57;;;8.70;99.90;;;;;;5109148;28;20042;-66
2022/04/12 06:50:10;;;;;;;10.05;4.63;;;8.80;99.90;;;;;;5108455;28;20276;-65
2022/04/12 06:52:38;;;;;;;8.43;4.88;;;8.80;99.90;;;;;;5100308;28;20042;-66
2022/04/12 06:55:07;;;;;;;9.63;5.10;;;9.00;99.90;;;;;;5107241;28;20047;-66
2022/04/12 06:57:36;;;;;;;11.00;4.70;;;9.20;99.90;;;;;;5076520;28;20077;-66
2022/04/12 07:00:07;;;;;;;7.93;4.57;;;9.30;99.90;;;;;;5102469;28;20071;-66
2022/04/12 07:02:34;;;;;;;9.02;4.15;;;9.50;99.90;;;;;;5091272;28;20089;-65
2022/04/12 07:05:03;;;;;;;8.63;4.13;;;9.70;99.90;;;;;;5091438;28;20051;-66
2022/04/12 07:07:31;;;;;;;8.77;4.97;;;9.80;99.90;;;;;;5091635;28;20111;-66
2022/04/12 07:09:58;;;;;;;8.27;4.28;;;9.90;99.90;;;;;;5078153;28;20043;-66
2022/04/12 07:12:25;;;;;;;10.15;3.80;;;10.00;99.90;;;;;;5082502;28;20127;-65
2022/04/12 07:14:53;;;;;;;9.88;4.13;;;10.10;99.90;;;;;;5090335;28;20048;-66
2022/04/12 07:17:21;;;;;;;8.82;3.58;;;10.20;99.90;;;;;;5090216;28;20134;-66
2022/04/12 07:19:48;;;;;;;11.68;4.22;;;10.40;99.90;;;;;;5092910;28;20463;-66
2022/04/12 07:22:16;;;;;;;7.80;4.18;;;10.60;99.90;;;;;;5082344;28;20570;-65
2022/04/12 07:24:43;;;;;;;10.50;4.40;;;10.70;99.90;;;;;;5092453;28;20510;-65
2022/04/12 07:27:11;;;;;;;7.68;4.07;;;10.80;99.90;;;;;;5083367;28;20040;-66
2022/04/12 07:29:38;;;;;;;10.35;3.58;;;10.90;99.90;;;;;;5093239;28;20491;-65
2022/04/12 07:32:06;;;;;;;10.48;3.80;;;11.10;99.90;;;;;;5084929;28;20035;-66
2022/04/12 07:34:34;;;;;;;7.05;3.83;;;11.20;99.90;;;;;;5093485;28;20406;-65
2022/04/12 07:37:01;;;;;;;7.45;3.67;;;11.20;99.90;;;;;;5091157;28;20059;-66
2022/04/12 07:39:29;;;;;;;7.35;3.60;;;11.30;99.90;;;;;;5097594;28;20054;-64
2022/04/12 07:41:56;;;;;;;8.77;3.50;;;11.50;99.90;;;;;;5090297;28;20559;-65
2022/04/12 07:44:24;;;;;;;5.82;3.15;;;11.60;99.90;;;;;;5087170;28;20110;-65
2022/04/12 07:46:51;;;;;;;6.57;3.30;;;11.70;99.90;;;;;;5091940;28;20151;-66
2022/04/12 07:49:18;;;;;;;8.55;3.90;;;11.90;99.90;;;;;;5103512;28;20063;-65
2022/04/12 07:51:46;;;;;;;5.70;2.95;;;12.00;99.90;;;;;;5081774;28;20040;-64
2022/04/12 07:54:14;;;;;;;7.15;2.53;;;12.00;99.90;;;;;;5091101;28;20499;-66
2022/04/12 07:56:41;;;;;;;7.30;2.72;;;12.20;99.90;;;;;;5092470;28;20491;-66
2022/04/12 07:59:10;;;;;;;7.72;2.85;;;12.30;99.90;;;;;;5107679;28;20074;-65
2022/04/12 08:01:38;;;;;;;7.18;2.63;;;12.50;99.90;;;;;;5084732;28;20505;-65
2022/04/12 08:04:05;;;;;;;6.28;2.38;;;12.70;99.90;;;;;;5088779;28;20052;-66
2022/04/12 08:06:33;;;;;;;4.40;2.25;;;12.90;99.90;;;;;;5089168;28;20086;-66
2022/04/12 08:09:00;;;;;;;4.70;2.50;;;13.20;99.90;;;;;;5089380;28;20056;-65
2022/04/12 08:11:27;;;;;;;6.43;2.80;;;13.40;99.90;;;;;;5089105;28;20387;-66
2022/04/12 08:13:54;;;;;;;5.05;2.63;;;13.50;99.90;;;;;;5091146;28;20040;-66
2022/04/12 08:16:22;;;;;;;7.10;2.70;;;13.60;99.90;;;;;;5087920;28;20066;-66
2022/04/12 08:18:50;;;;;;;6.32;2.50;;;13.70;99.90;;;;;;5090930;28;20128;-65
2022/04/12 08:21:38;;;;;;;8.05;2.80;;;13.70;99.90;;;;;;5089954;28;20167;-66
2022/04/12 08:24:08;;;;;;;6.13;2.20;;;13.80;99.90;;;;;;5084677;28;20132;-65
2022/04/12 08:26:38;;;;;;;5.20;2.38;;;13.70;99.90;;;;;;5077895;28;20492;-65
2022/04/12 08:29:06;;;;;;;8.15;2.25;;;13.70;99.90;;;;;;5095779;28;20086;-67
2022/04/12 08:31:33;;;;;;;5.18;2.55;;;13.70;99.90;;;;;;5083956;28;20176;-66
2022/04/12 08:34:00;;;;;;;3.75;1.80;;;13.80;99.90;;;;;;5083795;28;20367;-66
2022/04/12 08:36:28;;;;;;;4.78;2.28;;;13.90;99.90;;;;;;5084733;28;20046;-65
2022/04/12 08:38:55;;;;;;;5.18;2.10;;;13.90;99.90;;;;;;5100102;28;20130;-65
2022/04/12 08:41:24;;;;;;;8.40;2.45;;;14.00;99.90;;;;;;5101522;28;20505;-65
2022/04/12 08:43:56;;;;;;;6.68;2.28;;;14.10;99.90;;;;;;5102585;28;20044;-67
2022/04/12 08:46:25;;;;;;;7.53;2.20;;;14.20;99.90;;;;;;5083224;28;20036;-66
2022/04/12 08:48:54;;;;;;;6.05;2.42;;;14.30;99.90;;;;;;5092230;28;20046;-66
2022/04/12 08:51:23;;;;;;;4.68;2.10;;;14.50;99.90;;;;;;5093822;28;20076;-66
2022/04/12 08:53:51;;;;;;;7.28;2.28;;;14.50;99.90;;;;;;5089736;28;20048;-65
2022/04/12 08:56:19;;;;;;;3.92;1.90;;;14.60;99.90;;;;;;5084725;28;20382;-65
2022/04/12 08:58:46;;;;;;;6.20;2.45;;;14.70;99.90;;;;;;5092462;28;20044;-66
2022/04/12 09:01:34;;;;;;;5.47;2.42;;;14.70;99.90;;;;;;5076665;28;20395;-65
2022/04/12 09:04:02;;;;;;;5.85;2.10;;;14.90;99.90;;;;;;5089497;28;20043;-65
2022/04/12 09:06:29;;;;;;;5.85;2.85;;;14.90;99.90;;;;;;5090038;28;20055;-65
2022/04/12 09:09:11;;;;;;;4.45;2.30;;;15.10;99.90;;;;;;5089680;28;20052;-66
2022/04/12 09:11:42;;;;;;;4.40;2.10;;;15.30;99.90;;;;;;5092741;28;20062;-64
2022/04/12 09:14:13;;;;;;;4.10;1.90;;;15.30;99.90;;;;;;5088081;28;20117;-65
2022/04/12 09:16:46;;;;;;;4.85;2.20;;;15.50;99.30;;;;;;5090177;28;20062;-64
2022/04/12 09:19:14;;;;;;;3.60;1.88;;;15.60;99.40;;;;;;5092180;28;20533;-65
2022/04/12 09:21:46;;;;;;;5.28;2.17;;;15.80;99.00;;;;;;5086187;28;20044;-64
2022/04/12 09:24:21;;;;;;;4.13;1.88;;;16.00;98.50;;;;;;5090464;28;20065;-65
2022/04/12 09:26:57;;;;;;;4.45;1.90;;;16.10;97.60;;;;;;5091993;28;20078;-65
2022/04/12 09:29:29;;;;;;;5.38;2.00;;;16.20;97.40;;;;;;5090032;28;20478;-65
2022/04/12 09:31:59;;;;;;;5.28;1.95;;;16.30;97.50;;;;;;5084141;28;20044;-66
2022/04/12 09:34:28;;;;;;;5.65;2.70;;;16.40;97.10;;;;;;5086177;28;20383;-66
2022/04/12 09:37:27;;;;;;;8.88;3.88;;;16.40;96.50;;;;;;5087569;28;20036;-65
2022/04/12 09:40:01;;;;;;;5.53;2.08;;;16.50;96.70;;;;;;5088008;28;20040;-66
2022/04/12 09:42:44;;;;;;;4.28;1.95;;;16.80;96.20;;;;;;5091059;28;20044;-65
2022/04/12 09:45:13;;;;;;;;;;;16.90;96.10;;;;;;5096606;28;20048;-65
2022/04/12 09:47:41;;;;;;;6.88;2.17;;;17.20;95.50;;;;;;5096697;28;20018;-65
2022/04/12 09:50:30;;;;;;;7.32;2.22;;;17.40;95.00;;;;;;5098538;28;20051;-65
2022/04/12 09:53:02;;;;;;;6.43;2.53;;;17.60;94.50;;;;;;5091154;28;20099;-65
2022/04/12 09:55:36;;;;;;;;;;;17.80;94.00;;;;;;5091640;28;20102;-65
2022/04/12 09:58:14;;;;;;;3.00;1.60;;;18.00;93.90;;;;;;5093238;28;19924;-65
2022/04/12 10:00:43;;;;;;;5.80;2.03;;;18.10;92.60;;;;;;5090512;28;20066;-65
2022/04/12 10:03:13;;;;;;;5.65;1.70;;;18.10;92.10;;;;;;5084296;28;20055;-64
2022/04/12 10:05:42;;;;;;;4.38;1.75;;;18.10;92.20;;;;;;5087506;28;20074;-66
2022/04/12 10:08:10;;;;;;;5.80;1.85;;;18.40;91.90;;;;;;5087065;28;20094;-65
2022/04/12 10:10:41;;;;;;;3.25;1.77;;;18.60;91.50;;;;;;5089878;28;20511;-66
2022/04/12 10:13:09;;;;;;;6.70;2.10;;;18.70;91.20;;;;;;5090087;28;20502;-66
2022/04/12 10:15:37;;;;;;;3.88;1.67;;;18.80;90.70;;;;;;5088198;28;20040;-65
2022/04/12 10:18:05;;;;;;;4.40;1.80;;;19.00;89.30;;;;;;5087275;28;20055;-65
2022/04/12 10:20:33;;;;;;;4.22;2.10;;;19.20;89.80;;;;;;5082970;28;20045;-66
2022/04/12 10:23:01;;;;;;;3.72;1.58;;;19.50;89.40;;;;;;5075411;28;20075;-65
2022/04/12 10:25:29;;;;;;;4.75;1.90;;;19.50;88.10;;;;;;5088305;28;20048;-65
2022/04/12 10:27:58;;;;;;;4.03;1.70;;;19.40;88.80;;;;;;5084197;28;20051;-65
2022/04/12 10:30:28;;;;;;;4.03;2.08;;;19.40;88.80;;;;;;5085328;28;20509;-65
2022/04/12 10:33:02;;;;;;;5.75;1.60;;;19.50;88.10;;;;;;5092627;28;20043;-65
2022/04/12 10:35:56;;;;;;;5.43;2.30;;;19.50;87.60;;;;;;5091466;28;20514;-65
2022/04/12 10:38:27;;;;;;;4.88;1.67;;;19.70;87.50;;;;;;5091808;28;20101;-66
2022/04/12 10:40:56;;;;;;;4.60;1.75;;;19.80;85.80;;;;;;5105101;28;20143;-65
2022/04/12 10:43:29;;;;;;;5.10;1.85;;;20.10;85.20;;;;;;5096298;28;20051;-66
2022/04/12 10:45:57;;;;;;;3.85;1.60;;;20.50;83.10;;;;;;5105933;28;20039;-66
2022/04/12 10:48:28;;;;;;;4.30;1.52;;;20.80;80.60;;;;;;5099496;28;20048;-65
2022/04/12 10:50:59;;;;;;;4.35;1.50;;;20.90;80.20;;;;;;5101278;28;20047;-65
2022/04/12 10:53:39;;;;;;;3.65;1.90;;;21.00;79.50;;;;;;5092817;28;20096;-65
2022/04/12 10:56:14;;;;;;;4.38;1.80;;;21.30;78.70;;;;;;5091323;28;20567;-65
2022/04/12 10:58:44;;;;;;;3.75;1.90;;;21.40;78.20;;;;;;5100301;28;20044;-65
2022/04/12 11:01:28;;;;;;;6.80;2.00;;;21.50;75.30;;;;;;5097195;28;20544;-66
2022/04/12 11:03:57;;;;;;;2.63;1.30;;;21.70;74.90;;;;;;5099912;28;20182;-66
2022/04/12 11:06:26;;;;;;;3.30;1.60;;;21.80;72.50;;;;;;5102108;28;20118;-65
2022/04/12 11:09:15;;;;;;;5.05;1.60;;;22.00;72.70;;;;;;5088187;28;20044;-65
2022/04/12 11:11:45;;;;;;;3.10;1.33;;;22.20;71.90;;;;;;5092450;28;20150;-65
2022/04/12 11:14:22;;;;;;;4.43;1.35;;;22.00;70.90;;;;;;5098144;28;20479;-64
2022/04/12 11:16:51;;;;;;;3.95;1.48;;;22.10;68.40;;;;;;5091075;28;20078;-65
2022/04/12 11:19:24;;;;;;;4.18;1.80;;;21.70;69.30;;;;;;5089882;28;20457;-65
2022/04/12 11:22:00;;;;;;;8.43;2.70;;;21.90;69.50;;;;;;5090540;28;20044;-65
2022/04/12 11:24:27;;;;;;;4.32;1.40;;;22.00;69.90;;;;;;5095921;28;20122;-65
2022/04/12 11:27:12;;;;;;;3.70;1.83;;;22.30;69.80;;;;;;5103100;28;20577;-65
2022/04/12 11:29:41;;;;;;;6.35;2.13;;;22.30;68.90;;;;;;5081582;28;20131;-65
2022/04/12 11:32:10;;;;;;;4.93;1.60;;;22.30;68.50;;;;;;5091128;28;20043;-66
2022/04/12 11:34:39;;;;;;;3.33;1.50;;;22.70;66.80;;;;;;5095601;28;20082;-66
2022/04/12 11:37:09;;;;;;;3.08;1.67;;;23.10;65.90;;;;;;5094310;28;20186;-66
2022/04/12 11:39:40;;;;;;;6.93;1.52;;;23.30;64.70;;;;;;5097080;28;20052;-66
2022/04/12 11:42:12;;;;;;;3.38;1.42;;;23.40;63.90;;;;;;5102285;28;20122;-65
2022/04/12 11:44:40;;;;;;;3.65;1.50;;;23.70;64.50;;;;;;5093775;27;20045;-65
2022/04/12 11:47:09;;;;;;;3.65;1.63;;;24.00;63.10;;;;;;5098426;28;20556;-63
2022/04/12 11:49:41;;;;;;;4.80;1.45;;;23.70;63.50;;;;;;5080606;28;20105;-65
2022/04/12 11:52:10;;;;;;;7.22;1.73;;;23.70;61.90;;;;;;5100831;28;20035;-65
2022/04/12 11:54:51;;;;;;;2.78;1.27;;;23.50;61.10;;;;;;5102051;28;20063;-65
2022/04/12 11:57:21;;;;;;;4.15;1.50;;;23.70;61.10;;;;;;5099672;28;20052;-65
2022/04/12 11:59:54;;;;;;;3.53;1.30;;;23.80;62.30;;;;;;5084457;28;20100;-65
2022/04/12 12:02:23;;;;;;;3.95;1.38;;;24.50;61.40;;;;;;5090662;28;20141;-65
2022/04/12 12:05:00;;;;;;;5.97;1.50;;;24.90;59.60;;;;;;5099660;28;20040;-64
2022/04/12 12:07:28;;;;;;;2.72;1.20;;;25.20;59.00;;;;;;5094796;28;20586;-64
2022/04/12 12:10:00;;;;;;;4.00;1.52;;;25.80;58.50;;;;;;5099356;28;20055;-65
2022/04/12 12:12:45;;;;;;;4.00;1.38;;;25.20;56.50;;;;;;5095044;28;20135;-66
2022/04/12 12:15:25;;;;;;;4.55;1.63;;;25.00;57.50;;;;;;5090218;28;20040;-66
2022/04/12 12:18:03;;;;;;;3.55;1.30;;;25.10;58.10;;;;;;5095357;28;20416;-65
2022/04/12 12:20:33;;;;;;;4.57;2.40;;;25.70;57.30;;;;;;5094018;28;20230;-64
2022/04/12 12:23:06;;;;;;;3.90;1.60;;;26.30;55.80;;;;;;5096258;28;20040;-66
2022/04/12 12:25:43;;;;;;;3.20;1.30;;;25.80;56.10;;;;;;5095576;28;20370;-65
2022/04/12 12:28:11;;;;;;;4.13;1.60;;;26.00;56.90;;;;;;5095725;28;20095;-66
2022/04/12 12:30:40;;;;;;;3.17;1.00;;;26.20;54.80;;;;;;5090513;28;20044;-66
2022/04/12 12:33:07;;;;;;;5.28;1.52;;;26.60;55.50;;;;;;5088323;28;20135;-64
2022/04/12 12:35:37;;;;;;;5.00;1.35;;;26.80;55.30;;;;;;5087343;28;20098;-65
2022/04/12 12:38:11;;;;;;;2.80;1.10;;;27.40;54.70;;;;;;5102912;28;20249;-64
2022/04/12 12:40:40;;;;;;;4.20;1.20;;;27.30;53.80;;;;;;5094450;28;20441;-66
2022/04/12 12:43:11;;;;;;;3.95;1.33;;;27.80;53.00;;;;;;5098567;28;20135;-65
2022/04/12 12:45:46;;;;;;;4.85;1.15;;;28.40;51.90;;;;;;5095521;28;20090;-65
2022/04/12 12:48:17;;;;;;;6.28;1.58;;;28.60;51.90;;;;;;5077629;28;20033;-64
2022/04/12 12:50:45;;;;;;;2.72;1.30;;;29.00;51.40;;;;;;5092375;28;20039;-66
2022/04/12 12:53:15;;;;;;;5.88;2.08;;;29.50;50.80;;;;;;5108968;28;20067;-66
2022/04/12 12:55:49;;;;;;;3.78;1.80;;;29.70;49.80;;;;;;5107106;28;20127;-65
2022/04/12 12:58:18;;;;;;;5.95;1.20;;;29.30;50.80;;;;;;5096075;28;20032;-65
2022/04/12 13:00:46;;;;;;;2.50;1.13;;;28.90;50.00;;;;;;5086285;28;20047;-64
2022/04/12 13:03:16;;;;;;;2.72;1.20;;;29.00;50.70;;;;;;5088946;28;20047;-64